Date,TemperatureHighF,TemperatureAvgF,TemperatureLowF,DewpointHighF,DewpointAvgF,DewpointLowF,HumidityHigh,HumidityAvg,HumidityLow,PressureMaxIn,PressureMinIn,WindSpeedMaxMPH,WindSpeedAvgMPH,GustSpeedMaxMPH,PrecipitationSumIn
2013-2-1,40.4,33.4,26.0,32.2,15.7,-99.9,78,51,31,30.36,29.81,3,0,14,0.00
2013-2-2,40.7,31.7,18.2,34.5,14.8,8.6,87,51,32,30.37,29.99,6,1,13,0.01
2013-2-3,48.1,39.9,33.0,35.9,30.0,22.9,93,70,40,29.99,29.80,2,0,10,0.00
2013-2-4,46.6,37.6,25.9,27.5,23.5,20.4,86,58,40,30.10,29.94,3,0,7,0.00
2013-2-5,57.6,45.3,33.8,37.5,33.6,27.6,90,65,44,29.95,29.83,2,0,9,0.00
2013-2-6,58.9,44.2,30.8,40.0,32.8,29.2,96,69,35,30.27,29.92,1,0,9,0.00
2013-2-7,48.9,41.1,33.9,41.2,36.2,30.7,95,83,68,30.33,30.01,7,1,16,0.86
2013-2-8,51.3,44.0,40.3,46.0,40.3,31.2,98,88,61,30.01,29.75,5,0,15,0.94
2013-2-9,49.7,39.6,27.9,30.8,25.4,19.7,87,59,31,30.34,29.95,2,0,10,0.00
2013-2-10,49.5,36.7,22.7,37.0,25.6,19.7,92,67,35,30.46,30.20,5,0,9,0.00
2013-2-11,61.7,54.2,44.6,60.1,52.2,37.3,99,93,71,30.19,29.84,4,0,9,0.07
2013-2-12,58.7,52.3,43.2,54.6,38.8,30.9,92,62,36,30.03,29.85,2,0,9,0.01
2013-2-13,48.5,45.9,42.5,46.4,44.5,37.6,98,95,66,29.91,29.57,2,0,9,0.17
2013-2-14,50.3,40.6,31.5,40.1,36.3,30.6,99,86,62,30.04,29.76,4,0,7,0.00
2013-2-15,59.3,44.6,29.8,42.7,35.8,28.8,98,75,39,30.05,29.89,3,0,7,0.00
2013-2-16,46.9,37.7,31.5,39.0,35.0,30.2,97,90,70,29.93,29.78,3,0,12,0.30
2013-2-17,33.9,30.2,25.5,30.2,18.4,9.8,95,64,39,30.23,29.83,4,0,18,0.03
2013-2-18,49.0,34.3,16.5,28.2,19.4,10.3,91,57,29,30.38,30.23,4,0,11,0.00
2013-2-19,55.0,43.7,31.4,50.7,38.6,25.5,93,82,63,30.23,29.78,2,0,13,0.01
2013-2-20,49.9,41.1,31.1,37.6,22.7,16.3,86,51,27,30.11,29.89,2,0,11,0.00
2013-2-21,49.5,38.8,24.1,28.7,22.2,18.4,84,53,33,30.26,30.08,6,0,13,0.00
2013-2-22,42.5,38.1,33.8,36.8,27.3,20.1,96,66,49,30.33,30.13,6,1,14,0.11
2013-2-23,43.4,40.3,37.4,42.6,39.5,36.4,98,97,96,30.13,29.77,1,0,8,0.44
2013-2-24,58.8,45.4,35.1,47.0,39.7,31.8,99,83,42,30.03,29.75,3,0,20,0.12
2013-2-25,46.2,36.1,29.5,31.8,18.7,-99.9,91,64,50,30.20,30.02,3,0,11,0.00
2013-2-26,55.7,43.2,29.3,54.9,40.7,-99.9,99,92,81,30.15,29.54,10,2,22,0.57
2013-2-27,59.2,49.9,37.6,52.8,42.4,35.8,98,78,49,29.71,29.54,1,0,11,0.00
2013-2-28,51.9,43.5,36.4,39.4,32.5,28.5,95,67,42,29.79,29.64,2,0,11,0.00